Time;durP1;ratioP1;P1;durP2;ratioP2;P2;SDS_P1;SDS_P2;PMS_P1;PMS_P2;Temp;Humidity;BMP_temperature;BMP_pressure;BME280_temperature;BME280_humidity;BME280_pressure;Samples;Min_cycle;Max_cycle;Signal;HPM_P1;HPM_P2
2021/11/01 00:00:08;;;;;;;;;0.00;0.00;;;;;19.39;52.42;99869.53;5099495;27;45459;-64
2021/11/01 00:02:33;;;;;;;;;0.33;0.33;;;;;19.39;52.39;99864.19;5099185;27;47150;-64
2021/11/01 00:04:59;;;;;;;;;0.00;0.00;;;;;19.39;52.37;99862.41;5097696;27;45272;-66
2021/11/01 00:07:24;;;;;;;;;1.33;0.00;;;;;19.39;52.38;99867.72;5099045;27;46576;-64
2021/11/01 00:09:49;;;;;;;;;3.00;2.00;;;;;19.39;52.37;99859.75;5099129;27;45417;-66
2021/11/01 00:12:15;;;;;;;;;2.00;1.00;;;;;19.39;52.20;99858.88;5098973;27;45308;-65
2021/11/01 00:14:41;;;;;;;;;0.67;0.67;;;;;19.39;52.22;99861.53;5099067;27;45447;-66
2021/11/01 00:17:07;;;;;;;;;0.67;0.67;;;;;19.39;52.15;99856.19;5099309;27;45232;-66
2021/11/01 00:19:33;;;;;;;;;0.33;0.33;;;;;19.38;52.39;99857.97;5098989;27;45413;-67
2021/11/01 00:21:58;;;;;;;;;0.00;0.00;;;;;19.38;52.04;99854.44;5098447;27;46037;-66
2021/11/01 00:24:24;;;;;;;;;0.67;0.33;;;;;19.38;52.45;99859.75;5098642;27;45368;-65
2021/11/01 00:26:49;;;;;;;;;1.00;1.00;;;;;19.37;52.15;99855.38;5098724;27;45395;-66
2021/11/01 00:29:14;;;;;;;;;1.00;1.00;;;;;19.36;52.32;99848.28;5099135;27;45378;-63
2021/11/01 00:31:40;;;;;;;;;1.00;0.00;;;;;19.36;52.45;99848.28;5097970;27;45389;-64
2021/11/01 00:34:05;;;;;;;;;0.00;0.00;;;;;19.35;52.11;99834.13;5098538;27;45447;-64
2021/11/01 00:36:31;;;;;;;;;0.00;0.00;;;;;19.35;52.25;99843.91;5098493;27;45711;-66
2021/11/01 00:38:56;;;;;;;;;0.00;0.00;;;;;19.35;52.14;99843.91;5099052;27;45369;-66
2021/11/01 00:41:22;;;;;;;;;3.67;0.67;;;;;19.36;52.10;99840.28;5098457;27;46021;-65
2021/11/01 00:43:48;;;;;;;;;1.00;1.00;;;;;19.36;52.14;99837.63;5098343;27;45459;-67
2021/11/01 00:46:14;;;;;;;;;1.00;1.00;;;;;19.34;52.08;99832.34;5098496;27;45458;-64
2021/11/01 00:48:40;;;;;;;;;0.67;0.67;;;;;19.35;52.01;99819.91;5098734;27;45394;-65
2021/11/01 00:51:05;;;;;;;;;1.00;1.00;;;;;19.35;52.16;99827.91;5098179;27;46261;-65
2021/11/01 00:53:34;;;;;;;;;1.00;0.00;;;;;19.33;52.04;99820.81;5098546;27;45422;-64
2021/11/01 00:56:00;;;;;;;;;1.67;0.33;;;;;19.34;52.16;99811.03;5098204;27;45313;-65
2021/11/01 00:58:26;;;;;;;;;0.67;0.67;;;;;19.34;52.03;99811.03;5098563;27;45346;-67
2021/11/01 01:00:53;;;;;;;;;0.00;0.00;;;;;19.33;52.20;99801.31;5097701;27;45330;-65
2021/11/01 01:03:19;;;;;;;;;1.67;0.33;;;;;19.32;52.02;99803.09;5098078;27;45354;-65
2021/11/01 01:05:46;;;;;;;;;1.00;1.00;;;;;19.32;52.05;99796.91;5098126;27;45356;-64
2021/11/01 01:08:14;;;;;;;;;0.33;0.00;;;;;19.33;52.00;99806.66;5098039;27;45152;-64
2021/11/01 01:10:42;;;;;;;;;7.00;0.00;;;;;19.32;52.08;99804.91;5097806;27;46329;-63
2021/11/01 01:13:08;;;;;;;;;2.67;1.00;;;;;19.31;52.09;99800.50;5097793;27;45389;-63
2021/11/01 01:15:48;;;;;;;;;0.33;0.33;;;;;19.32;52.13;99808.44;5098074;27;45280;-64
2021/11/01 01:18:24;;;;;;;;;0.33;0.33;;;;;19.31;52.00;99800.50;5097979;27;45323;-64
2021/11/01 01:20:50;;;;;;;;;2.00;0.67;;;;;19.31;51.92;99797.84;5097308;27;46137;-65
2021/11/01 01:23:16;;;;;;;;;2.00;0.67;;;;;19.31;51.88;99790.69;5097479;27;45372;-63
2021/11/01 01:25:49;;;;;;;;;3.00;1.00;;;;;19.31;51.94;99779.19;5097995;27;45393;-64
2021/11/01 01:28:19;;;;;;;;;2.00;0.00;;;;;19.31;52.12;99779.19;5113085;27;45640;-64
2021/11/01 01:30:44;;;;;;;;;1.00;1.00;;;;;19.32;52.10;99770.25;5097569;27;46527;-63
2021/11/01 01:33:10;;;;;;;;;0.00;0.00;;;;;19.31;52.03;99781.84;5097555;27;45442;-67
2021/11/01 01:35:41;;;;;;;;;2.00;0.33;;;;;19.31;51.90;99796.03;5096383;27;45288;-64
2021/11/01 01:38:08;;;;;;;;;1.00;0.00;;;;;19.29;52.16;99779.22;5098005;27;45472;-66
2021/11/01 01:40:34;;;;;;;;;0.00;0.00;;;;;19.30;51.99;99777.44;5097466;27;46207;-65
2021/11/01 01:43:00;;;;;;;;;0.67;0.00;;;;;19.30;52.12;99778.31;5096273;27;45715;-64
2021/11/01 01:45:25;;;;;;;;;0.67;0.67;;;;;19.29;51.96;99776.56;5097565;27;45767;-64
2021/11/01 01:47:51;;;;;;;;;0.00;0.00;;;;;19.29;52.11;99776.56;5097731;27;45549;-63
2021/11/01 01:50:17;;;;;;;;;0.33;0.33;;;;;19.29;52.21;99771.22;5097296;27;45499;-64
2021/11/01 01:52:43;;;;;;;;;1.67;0.33;;;;;19.29;52.17;99765.91;5097518;27;45246;-63
2021/11/01 01:55:13;;;;;;;;;0.00;0.00;;;;;19.29;52.05;99770.38;5097290;27;45694;-64
2021/11/01 01:57:39;;;;;;;;;1.33;0.00;;;;;19.28;52.04;99761.50;5097539;27;45225;-63
2021/11/01 02:00:14;;;;;;;;;1.00;0.00;;;;;19.28;51.91;99774.81;5097456;27;45331;-64
2021/11/01 02:02:42;;;;;;;;;1.00;0.33;;;;;19.29;51.87;99775.72;5096977;27;45331;-64
2021/11/01 02:05:07;;;;;;;;;0.00;0.00;;;;;19.27;51.80;99765.06;5097373;27;45427;-63
2021/11/01 02:07:55;;;;;;;;;0.00;0.00;;;;;19.29;51.74;99775.72;5097490;27;45432;-64
2021/11/01 02:10:27;;;;;;;;;1.67;0.67;;;;;19.28;51.80;99769.50;5097062;27;46413;-65
2021/11/01 02:13:02;;;;;;;;;0.00;0.00;;;;;19.27;52.02;99769.56;5097287;27;45348;-65
2021/11/01 02:15:36;;;;;;;;;0.33;0.33;;;;;19.27;52.10;99767.75;5097034;27;45351;-63
2021/11/01 02:18:04;;;;;;;;;0.67;0.67;;;;;19.28;52.07;99758.84;5097586;27;45501;-65
2021/11/01 02:20:41;;;;;;;;;0.67;0.00;;;;;19.28;51.87;99757.97;5096839;27;46228;-64
2021/11/01 02:23:21;;;;;;;;;0.67;0.67;;;;;19.27;51.78;99762.41;5097080;27;45413;-63
2021/11/01 02:25:53;;;;;;;;;0.67;0.00;;;;;19.27;51.89;99764.22;5096822;27;45424;-63
2021/11/01 02:28:29;;;;;;;;;0.00;0.00;;;;;19.26;51.92;99782.00;5099633;27;45279;-64
2021/11/01 02:30:55;;;;;;;;;0.00;0.00;;;;;19.27;52.07;99772.22;5100505;27;45350;-67
2021/11/01 02:33:23;;;;;;;;;2.33;0.00;;;;;19.27;52.04;99772.22;5100270;27;45784;-64
2021/11/01 02:35:50;;;;;;;;;0.00;0.00;;;;;19.26;52.07;99768.69;5100523;27;45402;-66
2021/11/01 02:38:18;;;;;;;;;0.00;0.00;;;;;19.26;51.85;99773.13;5100913;27;45609;-66
2021/11/01 02:40:45;;;;;;;;;1.33;0.00;;;;;19.26;51.81;99775.78;5100009;27;47013;-64
2021/11/01 02:43:11;;;;;;;;;0.00;0.00;;;;;19.26;51.85;99775.78;5099885;27;45316;-66
2021/11/01 02:45:36;;;;;;;;;0.67;0.00;;;;;19.24;51.99;99775.84;5100535;27;45329;-66
2021/11/01 02:48:02;;;;;;;;;1.00;0.00;;;;;19.25;51.95;99777.59;5100898;27;45215;-67
2021/11/01 02:50:27;;;;;;;;;1.00;1.00;;;;;19.25;51.67;99772.25;5100344;27;46949;-66
2021/11/01 02:52:53;;;;;;;;;0.67;0.67;;;;;19.25;51.80;99772.25;5100171;27;45698;-66
2021/11/01 02:55:20;;;;;;;;;0.00;0.00;;;;;19.25;52.06;99779.41;5100422;27;45451;-67
2021/11/01 02:57:47;;;;;;;;;0.00;0.00;;;;;19.25;51.67;99772.25;5100548;27;45341;-66
2021/11/01 03:00:15;;;;;;;;;1.00;0.00;;;;;19.24;51.88;99778.53;5100047;27;47246;-67
2021/11/01 03:02:41;;;;;;;;;0.00;0.00;;;;;19.23;51.64;99771.44;5100152;27;45455;-67
2021/11/01 03:05:14;;;;;;;;;0.00;0.00;;;;;19.23;51.89;99776.75;5100331;27;45460;-67
2021/11/01 03:07:40;;;;;;;;;0.33;0.00;;;;;19.24;51.83;99778.53;5100076;27;45393;-66
2021/11/01 03:10:07;;;;;;;;;2.00;0.67;;;;;19.24;51.77;99767.00;5100052;27;47404;-65
2021/11/01 03:12:34;;;;;;;;;4.00;0.33;;;;;19.24;51.62;99765.19;5100164;27;45215;-67
2021/11/01 03:15:03;;;;;;;;;2.00;0.00;;;;;19.23;51.89;99760.78;5100022;27;45361;-64
2021/11/01 03:17:34;;;;;;;;;0.67;0.67;;;;;19.22;51.71;99761.72;5098846;27;45434;-66
2021/11/01 03:20:11;;;;;;;;;1.67;0.00;;;;;19.23;51.80;99774.09;5099522;27;47070;-67
2021/11/01 03:22:40;;;;;;;;;3.00;0.00;;;;;19.24;51.92;99767.00;5099728;27;45798;-66
2021/11/01 03:25:16;;;;;;;;;2.00;0.00;;;;;19.23;51.68;99774.09;5100143;27;45416;-67
2021/11/01 03:27:44;;;;;;;;;1.00;0.00;;;;;19.23;51.65;99773.25;5099790;27;45227;-66
2021/11/01 03:30:10;;;;;;;;;0.00;0.00;;;;;19.24;51.59;99791.84;5099633;27;46175;-67
2021/11/01 03:32:36;;;;;;;;;0.00;0.00;;;;;19.22;51.80;99785.69;5099364;27;45325;-67
2021/11/01 03:35:03;;;;;;;;;0.00;0.00;;;;;19.21;51.49;99790.16;5099648;27;45396;-66
2021/11/01 03:37:30;;;;;;;;;0.33;0.00;;;;;19.21;51.88;99799.91;5099831;27;45440;-65
2021/11/01 03:39:57;;;;;;;;;0.33;0.00;;;;;19.23;51.76;99798.06;5099133;27;45344;-66
2021/11/01 03:42:25;;;;;;;;;0.00;0.00;;;;;19.22;51.76;99796.34;5099565;27;45395;-66
2021/11/01 03:44:57;;;;;;;;;0.00;0.00;;;;;19.21;51.66;99800.81;5099601;27;45280;-67
2021/11/01 03:47:25;;;;;;;;;2.00;0.00;;;;;19.21;51.86;99799.91;5099724;27;45376;-65
2021/11/01 03:49:58;;;;;;;;;0.00;0.00;;;;;19.20;51.96;99780.44;5099154;27;46210;-64
2021/11/01 03:52:27;;;;;;;;;0.00;0.00;;;;;19.21;51.86;99789.25;5099365;27;45349;-65
2021/11/01 03:54:52;;;;;;;;;1.00;0.00;;;;;19.20;51.63;99793.75;5098912;27;45412;-64
2021/11/01 03:57:19;;;;;;;;;2.00;0.00;;;;;19.21;51.88;99794.59;5099526;27;45333;-64
2021/11/01 03:59:45;;;;;;;;;0.00;0.00;;;;;19.21;51.72;99794.59;5099223;27;47174;-64
2021/11/01 04:02:14;;;;;;;;;2.00;0.33;;;;;19.20;51.90;99803.53;5098997;27;45566;-64
2021/11/01 04:04:43;;;;;;;;;0.00;0.00;;;;;19.21;51.73;99802.59;5099335;27;45404;-64
2021/11/01 04:07:08;;;;;;;;;1.67;0.67;;;;;19.20;51.54;99807.06;5098914;27;45467;-63
2021/11/01 04:09:34;;;;;;;;;1.00;0.00;;;;;19.20;51.70;99804.41;5099056;27;47247;-64
2021/11/01 04:11:59;;;;;;;;;0.67;0.00;;;;;19.20;51.49;99808.84;5099049;27;45482;-66
2021/11/01 04:14:27;;;;;;;;;0.00;0.00;;;;;19.20;51.68;99814.19;5098026;27;45272;-64
2021/11/01 04:17:02;;;;;;;;;0.00;0.00;;;;;19.19;51.77;99807.09;5099285;27;45143;-66
2021/11/01 04:21:55;;;;;;;;;0.33;0.33;;;;;19.18;51.43;99808.91;5098852;27;45308;-66
2021/11/01 04:24:23;;;;;;;;;0.00;0.00;;;;;19.19;51.56;99799.09;5098940;27;45341;-66
2021/11/01 04:26:49;;;;;;;;;0.33;0.00;;;;;19.19;51.60;99801.78;5099036;27;45513;-66
2021/11/01 04:29:15;;;;;;;;;0.00;0.00;;;;;19.18;51.46;99813.38;5098637;27;46015;-66
2021/11/01 04:31:45;;;;;;;;;0.00;0.00;;;;;19.18;51.54;99818.69;5098260;27;45332;-66
2021/11/01 04:34:27;;;;;;;;;0.00;0.00;;;;;19.17;51.42;99808.94;5098423;27;45332;-65
2021/11/01 04:36:54;;;;;;;;;0.00;0.00;;;;;19.18;51.64;99805.38;5098867;27;45327;-66
2021/11/01 04:39:42;;;;;;;;;2.67;1.00;;;;;19.18;51.63;99800.03;5098466;27;46375;-66
2021/11/01 04:55:20;;;;;;;;;0.00;0.00;;;;;19.15;51.53;99801.00;5098325;27;45470;-67
2021/11/01 04:57:46;;;;;;;;;0.33;0.33;;;;;19.16;51.76;99801.88;5098658;27;45469;-66
2021/11/01 05:00:12;;;;;;;;;3.00;0.00;;;;;19.16;51.53;99812.53;5097975;27;47089;-67
2021/11/01 05:02:41;;;;;;;;;0.00;0.00;;;;;19.16;51.58;99808.06;5098428;27;45347;-66
2021/11/01 05:05:07;;;;;;;;;0.00;0.00;;;;;19.16;51.58;99815.22;5098273;27;45360;-63
2021/11/01 05:07:33;;;;;;;;;0.00;0.00;;;;;19.15;51.40;99798.34;5098368;27;45378;-66
2021/11/01 05:12:34;;;;;;;;;0.00;0.00;;;;;19.16;51.63;99807.22;5098147;27;45393;-67
2021/11/01 05:18:04;;;;;;;;;0.00;0.00;;;;;19.16;51.36;99810.72;5055331;28;45553;-67
2021/11/01 05:20:42;;;;;;;;;2.00;0.00;;;;;19.16;51.45;99799.22;5054568;28;46337;-66
2021/11/01 05:23:27;;;;;;;;;2.00;0.00;;;;;19.16;51.38;99804.56;5054966;28;45327;-67
2021/11/01 05:26:06;;;;;;;;;0.67;0.00;;;;;19.14;51.35;99812.53;5055111;28;45442;-67
2021/11/01 05:28:45;;;;;;;;;0.00;0.00;;;;;19.14;51.38;99809.88;5054996;28;45329;-67
2021/11/01 05:31:16;;;;;;;;;0.00;0.00;;;;;19.14;51.71;99809.03;5054610;28;46714;-66
2021/11/01 05:36:13;;;;;;;;;0.00;0.00;;;;;19.15;51.47;99816.13;5055137;28;45381;-67
2021/11/01 05:38:38;;;;;;;;;0.00;0.00;;;;;19.15;51.47;99816.13;5054862;28;45317;-65
2021/11/01 05:41:04;;;;;;;;;1.67;0.00;;;;;19.13;51.48;99812.59;5037903;28;48307;-66
2021/11/01 05:43:29;;;;;;;;;0.00;0.00;;;;;19.13;51.42;99812.59;5054651;28;45735;-67
2021/11/01 05:45:55;;;;;;;;;0.00;0.00;;;;;19.13;51.30;99810.81;5054748;28;45312;-68
2021/11/01 05:48:21;;;;;;;;;0.33;0.33;;;;;19.13;51.46;99813.47;5055205;28;45455;-65
2021/11/01 05:50:46;;;;;;;;;0.00;0.00;;;;;19.13;51.47;99815.25;5054474;28;45463;-67
2021/11/01 05:53:13;;;;;;;;;0.00;0.00;;;;;19.15;51.38;99829.44;5097728;27;45334;-67
2021/11/01 05:58:44;;;;;;;;;2.67;0.00;;;;;19.14;51.29;99830.34;5097765;27;45158;-65
2021/11/01 06:03:43;;;;;;;;;1.00;0.00;;;;;19.13;51.38;99833.91;5096817;27;45349;-67
2021/11/01 06:09:32;;;;;;;;;0.33;0.33;;;;;19.11;51.24;99857.94;5054610;28;45389;-63
2021/11/01 06:14:25;;;;;;;;;0.00;0.00;;;;;19.12;51.34;99861.47;5054327;28;45426;-65
2021/11/01 06:16:51;;;;;;;;;0.00;0.00;;;;;19.10;51.42;99859.72;5054268;28;45400;-66
2021/11/01 06:19:16;;;;;;;;;0.00;0.00;;;;;19.10;51.10;99851.72;5054386;28;45390;-66
2021/11/01 06:21:43;;;;;;;;;1.33;0.00;;;;;19.13;51.39;99849.88;5037349;28;46258;-67
2021/11/01 06:24:17;;;;;;;;;1.67;0.00;;;;;19.11;51.35;99857.94;5054102;28;45361;-64
2021/11/01 06:26:43;;;;;;;;;0.00;0.00;;;;;19.12;51.31;99858.81;5054220;28;45465;-67
2021/11/01 06:29:09;;;;;;;;;0.67;0.00;;;;;19.12;51.32;99862.31;5037660;28;45383;-67
2021/11/01 06:31:43;;;;;;;;;0.67;0.00;;;;;19.12;51.18;99874.81;5054023;28;46945;-67
2021/11/01 06:34:23;;;;;;;;;0.00;0.00;;;;;19.12;51.09;99872.13;5053954;28;45370;-66
2021/11/01 06:44:58;;;;;;;;;0.67;0.00;;;;;19.10;51.09;99878.38;5076706;27;45462;-67
2021/11/01 06:50:23;;;;;;;;;0.00;0.00;;;;;19.09;51.32;99876.63;5096960;27;45361;-66
2021/11/01 06:58:28;;;;;;;;;0.00;0.00;;;;;19.08;51.43;99874.88;5069876;27;45519;-64
2021/11/01 07:14:41;;;;;;;;;0.00;0.00;;;;;19.05;51.31;99880.31;5058085;28;45325;-65
2021/11/01 07:17:15;;;;;;;;;1.67;0.00;;;;;19.05;51.32;99885.66;5059409;28;45401;-66
2021/11/01 08:30:15;;;;;;;;;0.00;0.00;;;;;19.03;51.22;99914.13;5057819;28;45869;-63
2021/11/01 08:35:58;;;;;;;;;1.67;0.67;;;;;19.02;51.46;99912.38;5057788;28;45236;-68
2021/11/01 08:51:20;;;;;;;;;0.00;0.00;;;;;19.04;51.16;99914.97;5098222;27;45471;-63
2021/11/01 09:04:39;;;;;;;;;0.00;0.00;;;;;19.05;51.23;99927.38;5097850;27;45397;-65
2021/11/01 09:20:23;;;;;;;;;0.00;0.00;;;;;19.04;51.14;99920.31;5098243;27;45406;-65
2021/11/01 09:25:26;;;;;;;;;0.00;0.00;;;;;19.02;51.00;99919.47;5097430;27;45317;-66
2021/11/01 09:27:57;;;;;;;;;0.00;0.00;;;;;19.03;51.06;99919.44;5097339;27;45295;-62
2021/11/01 09:43:21;;;;;;;;;1.67;0.00;;;;;19.01;50.94;99920.41;5097305;27;45486;-63
2021/11/01 09:45:47;;;;;;;;;0.00;0.00;;;;;19.01;50.92;99917.75;5097359;27;45365;-67
2021/11/01 09:48:13;;;;;;;;;0.67;0.00;;;;;19.00;51.16;99916.88;5097705;27;45324;-66
2021/11/01 09:50:39;;;;;;;;;0.67;0.00;;;;;19.01;51.01;99915.97;5097760;27;45531;-66
2021/11/01 09:53:23;;;;;;;;;0.00;0.00;;;;;19.01;50.94;99907.09;5097358;27;46172;-66
2021/11/01 10:01:05;;;;;;;;;0.00;0.00;;;;;19.00;50.77;99898.22;5097876;27;45421;-65
2021/11/01 10:03:36;;;;;;;;;0.00;0.00;;;;;19.01;51.02;99907.09;5097086;27;46992;-66
2021/11/01 10:06:03;;;;;;;;;0.00;0.00;;;;;19.00;51.06;99903.56;5097018;27;45361;-66
2021/11/01 10:08:29;;;;;;;;;0.33;0.33;;;;;19.00;50.87;99903.56;5097160;27;45326;-64
2021/11/01 10:10:55;;;;;;;;;0.67;0.00;;;;;19.01;51.03;99907.97;5096221;27;45392;-61
2021/11/01 10:13:21;;;;;;;;;0.00;0.00;;;;;19.02;50.84;99914.16;5097077;27;47113;-64
2021/11/01 10:18:48;;;;;;;;;0.00;0.00;;;;;19.01;51.00;99915.09;5097222;27;45304;-65
2021/11/01 10:21:16;;;;;;;;;0.00;0.00;;;;;19.01;51.01;99910.63;5097223;27;45168;-63
2021/11/01 10:23:47;;;;;;;;;0.00;0.00;;;;;19.01;50.83;99907.97;5096576;27;45417;-65
2021/11/01 10:26:16;;;;;;;;;0.00;0.00;;;;;19.01;51.10;99907.97;5097027;27;45208;-63
2021/11/01 10:28:43;;;;;;;;;0.00;0.00;;;;;19.01;51.17;99915.97;5097171;27;45330;-62
2021/11/01 10:31:19;;;;;;;;;0.00;0.00;;;;;19.02;51.08;99928.34;5097169;27;45468;-65
2021/11/01 10:33:46;;;;;;;;;0.00;0.00;;;;;19.01;51.25;99915.97;5096587;27;45527;-65
2021/11/01 10:36:26;;;;;;;;;0.00;0.00;;;;;19.02;51.01;99912.38;5096930;27;45333;-63
2021/11/01 10:39:02;;;;;;;;;0.33;0.00;;;;;19.02;50.99;99903.50;5097289;27;45317;-64
2021/11/01 10:41:36;;;;;;;;;0.00;0.00;;;;;19.03;50.72;99908.81;5095130;27;45446;-65
2021/11/01 10:44:12;;;;;;;;;0.00;0.00;;;;;19.03;51.20;99908.81;5096451;27;46955;-65
2021/11/01 11:39:18;;;;;;;;;0.00;0.00;;;;;19.12;51.09;99880.97;4957454;28;45342;-62
2021/11/01 11:48:17;;;;;;;;;0.67;0.00;;;;;19.15;51.17;99874.72;4957488;28;45421;-65
2021/11/01 11:50:43;;;;;;;;;0.00;0.00;;;;;19.16;51.20;99884.47;4957132;28;45346;-61
2021/11/01 11:53:22;;;;;;;;;0.67;0.00;;;;;19.18;51.52;99877.31;4957232;28;45416;-63
2021/11/01 11:56:14;;;;;;;;;0.00;0.00;;;;;19.16;51.35;99861.34;4957271;28;45498;-63
2021/11/01 11:58:43;;;;;;;;;0.00;0.00;;;;;19.16;51.22;99869.34;4957476;28;45469;-65
2021/11/01 12:01:30;;;;;;;;;0.00;0.00;;;;;19.17;51.05;99856.88;4955877;28;46442;-61
2021/11/01 12:03:58;;;;;;;;;1.33;0.00;;;;;19.17;51.23;99857.78;4956647;28;45306;-64
2021/11/01 12:06:51;;;;;;;;;0.33;0.00;;;;;19.17;51.36;99848.91;4957392;28;45457;-64
2021/11/01 12:09:21;;;;;;;;;0.00;0.00;;;;;19.18;51.13;99854.19;4964195;28;45317;-64
2021/11/01 12:17:19;;;;;;;;;0.00;0.00;;;;;19.17;51.13;99849.78;4996364;28;45213;-65
2021/11/01 12:19:44;;;;;;;;;0.33;0.00;;;;;19.17;51.25;99840.91;4996252;28;45444;-64
2021/11/01 12:22:12;;;;;;;;;0.00;0.00;;;;;19.17;51.30;99839.13;4995475;28;47314;-63
2021/11/01 12:24:46;;;;;;;;;0.00;0.00;;;;;19.18;51.43;99840.88;5064627;27;45418;-62
2021/11/01 12:27:12;;;;;;;;;1.00;0.00;;;;;19.17;51.41;99838.25;5098635;27;45243;-65
2021/11/01 12:29:38;;;;;;;;;0.00;0.00;;;;;19.17;51.68;99831.13;5099071;27;45504;-64
2021/11/01 12:32:08;;;;;;;;;0.33;0.33;;;;;19.17;51.43;99839.13;5098059;27;46653;-66
2021/11/01 12:34:41;;;;;;;;;0.00;0.00;;;;;19.18;51.24;99837.34;5098346;27;45376;-65
2021/11/01 12:37:14;;;;;;;;;0.00;0.00;;;;;19.17;51.69;99831.13;5098620;27;45343;-65
2021/11/01 12:39:55;;;;;;;;;0.00;0.00;;;;;19.19;51.27;99817.75;5098815;27;45464;-64
2021/11/01 12:58:48;;;;;;;;;0.00;0.00;;;;;19.19;51.41;99812.41;5055226;28;45408;-66
2021/11/01 13:01:16;;;;;;;;;0.00;0.00;;;;;19.20;51.35;99807.06;5055446;28;45490;-68
2021/11/01 13:03:59;;;;;;;;;0.00;0.00;;;;;19.19;51.18;99807.97;5054739;28;46226;-66
2021/11/01 13:06:58;;;;;;;;;0.00;0.00;;;;;19.20;51.07;99803.53;5055188;28;45438;-65
2021/11/01 13:09:33;;;;;;;;;0.00;0.00;;;;;19.20;51.03;99803.53;5054204;28;45597;-65
2021/11/01 13:19:52;;;;;;;;;0.00;0.00;;;;;19.18;51.42;99762.75;5055184;28;45569;-63
2021/11/01 13:22:37;;;;;;;;;0.00;0.00;;;;;19.19;51.11;99765.34;5054863;28;45295;-64
2021/11/01 13:40:04;;;;;;;;;0.33;0.00;;;;;19.17;51.15;99761.88;4975251;28;45486;-65
2021/11/01 13:42:30;;;;;;;;;0.00;0.00;;;;;19.16;50.99;99754.78;4975067;28;45320;-66
2021/11/01 13:45:16;;;;;;;;;0.00;0.00;;;;;19.17;51.04;99750.34;4975439;28;45717;-63
2021/11/01 13:47:46;;;;;;;;;0.00;0.00;;;;;19.18;51.08;99744.09;4975002;28;46132;-63
2021/11/01 13:50:14;;;;;;;;;0.00;0.00;;;;;19.17;51.20;99763.66;4975135;28;45367;-65
2021/11/01 13:52:41;;;;;;;;;0.00;0.00;;;;;19.18;51.32;99813.38;4974932;28;45442;-65
2021/11/01 13:58:05;;;;;;;;;0.00;0.00;;;;;19.17;51.15;99783.19;4959521;28;46123;-65
2021/11/01 14:00:49;;;;;;;;;0.00;0.00;;;;;19.15;50.95;99763.72;4994272;28;45472;-63
2021/11/01 14:11:46;;;;;;;;;0.00;0.00;;;;;19.17;51.21;99800.94;5016948;28;45503;-63
2021/11/01 14:14:52;;;;;;;;;0.00;0.00;;;;;19.17;51.06;99792.97;4994327;28;45806;-65
2021/11/01 14:36:02;;;;;;;;;0.00;0.00;;;;;19.16;51.39;99783.25;5000245;28;45408;-60
2021/11/01 15:21:13;;;;;;;;;0.67;0.00;;;;;19.14;51.37;99819.69;5057200;28;45331;-63
2021/11/01 15:24:10;;;;;;;;;0.00;0.00;;;;;19.16;51.45;99817.88;5057117;28;45375;-62
2021/11/01 15:37:15;;;;;;;;;2.00;0.00;;;;;19.14;51.22;99795.72;5056614;28;45510;-60
2021/11/01 16:20:21;;;;;;;;;0.00;0.00;;;;;19.13;51.42;99799.28;5078435;27;45327;-61
2021/11/01 16:22:46;;;;;;;;;0.00;0.00;;;;;19.13;51.10;99801.94;5078463;27;45747;-63
2021/11/01 16:25:11;;;;;;;;;0.00;0.00;;;;;19.12;51.29;99795.75;5078761;27;45305;-60
2021/11/01 16:27:44;;;;;;;;;1.00;0.00;;;;;19.12;51.42;99801.06;5078179;27;47114;-61
2021/11/01 16:30:13;;;;;;;;;0.00;0.00;;;;;19.12;51.25;99810.88;5078198;27;45329;-62
2021/11/01 16:32:42;;;;;;;;;0.00;0.00;;;;;19.12;51.21;99806.38;5078480;27;45215;-63
2021/11/01 16:35:08;;;;;;;;;0.00;0.00;;;;;19.12;51.09;99800.22;5078123;27;45420;-62
2021/11/01 16:40:08;;;;;;;;;0.67;0.00;;;;;19.10;51.12;99803.78;5077977;27;45428;-60
2021/11/01 16:42:39;;;;;;;;;0.00;0.00;;;;;19.12;51.08;99805.53;5078107;27;45333;-63
2021/11/01 16:45:24;;;;;;;;;0.00;0.00;;;;;19.10;51.09;99801.13;5078297;27;45487;-64
2021/11/01 16:47:50;;;;;;;;;0.00;0.00;;;;;19.10;51.01;99806.44;5077527;27;47497;-64
2021/11/01 16:50:16;;;;;;;;;1.00;0.67;;;;;19.11;51.08;99820.66;5077910;27;45473;-64
2021/11/01 16:52:44;;;;;;;;;0.00;0.00;;;;;19.10;51.35;99819.78;5078287;27;45357;-64
2021/11/01 16:55:17;;;;;;;;;0.00;0.00;;;;;19.12;51.14;99821.53;5078276;27;45471;-63
2021/11/01 16:57:47;;;;;;;;;0.00;0.00;;;;;19.11;51.25;99817.97;5077563;27;46108;-64
2021/11/01 17:35:17;;;;;;;;;0.00;0.00;;;;;19.07;51.10;99835.00;4955619;28;45429;-61
2021/11/01 17:38:10;;;;;;;;;1.33;0.00;;;;;19.06;51.21;99828.78;4956008;28;45318;-64
2021/11/01 18:52:32;;;;;;;;;0.67;0.67;;;;;19.01;51.23;99860.03;5055622;28;45308;-62
2021/11/01 18:55:03;;;;;;;;;0.67;0.67;;;;;19.00;51.01;99868.94;5055948;28;45446;-62
2021/11/01 18:57:32;;;;;;;;;0.00;0.00;;;;;19.01;50.70;99860.03;5055559;28;46117;-62
2021/11/01 19:00:02;;;;;;;;;0.00;0.00;;;;;19.02;51.07;99861.75;5055665;28;45275;-61
2021/11/01 19:02:45;;;;;;;;;0.00;0.00;;;;;19.01;50.72;99862.69;5055843;28;45438;-63
2021/11/01 19:05:20;;;;;;;;;0.00;0.00;;;;;19.00;51.04;99866.28;5055814;28;45227;-63
2021/11/01 19:07:54;;;;;;;;;0.00;0.00;;;;;19.02;51.16;99860.88;5055694;28;45359;-64
2021/11/01 19:16:49;;;;;;;;;1.67;0.00;;;;;19.01;50.96;99857.38;5059096;28;45329;-63
2021/11/01 20:03:28;;;;;;;;;3.00;3.00;;;;;19.02;51.10;99858.22;5053124;28;45758;-63
2021/11/01 20:06:05;;;;;;;;;2.67;2.67;;;;;19.02;51.11;99847.56;5058104;28;45298;-62
2021/11/01 21:25:51;;;;;;;;;6.67;4.67;;;;;19.02;52.01;99827.13;4995181;28;45465;-64
2021/11/01 21:28:17;;;;;;;;;3.67;3.67;;;;;19.02;51.84;99824.47;4995115;28;45373;-63
2021/11/01 21:30:43;;;;;;;;;8.67;3.67;;;;;19.02;52.08;99827.13;4995128;28;46377;-63
2021/11/01 21:33:10;;;;;;;;;8.00;5.00;;;;;19.02;52.22;99828.94;4994560;28;45336;-63
2021/11/01 21:35:42;;;;;;;;;5.33;4.33;;;;;19.02;51.69;99831.59;4994897;28;45401;-65
2021/11/01 21:38:08;;;;;;;;;4.33;3.67;;;;;19.01;51.78;99821.88;5009147;28;45415;-65
2021/11/01 21:40:33;;;;;;;;;5.00;4.33;;;;;19.01;51.70;99825.41;5054450;28;46860;-64
2021/11/01 21:42:59;;;;;;;;;4.33;4.33;;;;;19.02;51.78;99824.47;5054539;28;45308;-63
2021/11/01 21:45:24;;;;;;;;;4.33;2.67;;;;;19.01;51.89;99820.09;5054776;28;45388;-63
2021/11/01 21:47:50;;;;;;;;;7.33;4.00;;;;;19.02;52.02;99812.94;5054882;28;45330;-68
2021/11/01 21:50:16;;;;;;;;;4.67;3.00;;;;;19.00;52.11;99807.69;5037738;28;46136;-64
2021/11/01 21:52:44;;;;;;;;;5.00;5.00;;;;;19.00;51.75;99807.69;5056093;27;45271;-64
2021/11/01 21:55:09;;;;;;;;;4.00;4.00;;;;;18.98;52.00;99805.06;5097422;27;45582;-66
2021/11/01 22:16:39;;;;;;;;;4.33;4.00;;;;;18.93;52.00;99795.50;5097338;27;45322;-66
2021/11/01 22:32:27;;;;;;;;;6.67;4.67;;;;;18.88;52.01;99787.66;5054244;28;45429;-68
2021/11/01 22:42:51;;;;;;;;;5.00;3.33;;;;;18.85;52.15;99783.28;5053888;28;45920;-69
2021/11/01 22:45:22;;;;;;;;;3.33;2.67;;;;;18.85;51.94;99779.75;5056417;28;45403;-67
2021/11/01 22:55:58;;;;;;;;;3.00;2.00;;;;;18.83;52.05;99765.63;5057425;28;45373;-67
2021/11/01 22:58:24;;;;;;;;;4.67;4.00;;;;;18.84;51.93;99762.03;5057154;28;45346;-67
2021/11/01 23:01:01;;;;;;;;;2.67;2.33;;;;;18.83;52.01;99761.16;5057445;28;45554;-67
2021/11/01 23:33:07;;;;;;;;;4.00;3.00;;;;;18.80;52.04;99750.63;5100185;27;45376;-71
2021/11/01 23:35:32;;;;;;;;;2.67;2.67;;;;;18.81;52.02;99752.34;5099400;27;47284;-71
2021/11/01 23:37:58;;;;;;;;;1.67;1.67;;;;;18.81;51.94;99749.69;5099371;27;45496;-70
2021/11/01 23:40:23;;;;;;;;;1.67;1.67;;;;;18.81;51.76;99744.38;5099667;27;45399;-71
2021/11/01 23:42:49;;;;;;;;;3.00;3.00;;;;;18.81;51.81;99747.03;5099649;27;45286;-70
2021/11/01 23:45:14;;;;;;;;;2.67;2.67;;;;;18.81;51.76;99744.38;5099615;27;45747;-69
2021/11/01 23:47:40;;;;;;;;;2.00;2.00;;;;;18.80;51.87;99747.97;5099494;27;45423;-65
2021/11/01 23:50:05;;;;;;;;;2.67;2.67;;;;;18.80;51.63;99736.44;5099630;27;45276;-70
2021/11/01 23:52:52;;;;;;;;;3.33;3.33;;;;;18.80;51.72;99737.31;5099752;27;45211;-65
2021/11/01 23:55:17;;;;;;;;;1.67;1.67;;;;;18.80;51.67;99745.31;5099170;27;47142;-69
2021/11/01 23:57:42;;;;;;;;;3.67;1.67;;;;;18.80;51.96;99739.97;5099009;27;45448;-69
